Annette, Alaska
Current Conditions -  °F | °C
As of 1:26 PM on Saturday 20 Dec 2014 (Local Time) from PANT Reporting Station
Light Rain Light Rain  
Wind Chill: 39°   Ceiling: 2500
Heat Index: 45°   Visibility: 4mi
Dew Point: 43°   Wind: 12mph
Humidity: 93%   Direction: 130°SE
Pressure: 29.02"   Gusts: 21mph
Location:  55.05°N, 131.6°W
Report Text: PANT 202226Z 13010G18KT 4SM -RA BR SCT008 BKN025 OVC032 07/06 A2902 RMK AO2 P0008 T00720061 $
Loading
Personal Weather Stations






























Interactive Weather Map New forecast layout! Learn more

10-Day Weather Forecast

Advertisements
Track Severe Weather on mobile